Time;durP1;ratioP1;P1;durP2;ratioP2;P2;SDS_P1;SDS_P2;PMS_P1;PMS_P2;Temp;Humidity;BMP_temperature;BMP_pressure;BME280_temperature;BME280_humidity;BME280_pressure;Samples;Min_cycle;Max_cycle;Signal;HPM_P1;HPM_P2
2022/01/16 00:04:57;;;;;;;115.90;47.78;;;2.60;99.90;;;;;;5021550;28;20052;-56
2022/01/16 00:07:22;;;;;;;124.17;49.03;;;2.60;99.90;;;;;;5049317;28;20218;-53
2022/01/16 00:09:48;;;;;;;130.77;50.13;;;2.60;99.90;;;;;;5048528;28;20098;-57
2022/01/16 00:12:14;;;;;;;120.57;49.47;;;2.60;99.90;;;;;;5049559;28;20068;-57
2022/01/16 00:14:39;;;;;;;114.03;45.13;;;2.60;99.90;;;;;;5049571;28;20331;-57
2022/01/16 00:17:05;;;;;;;104.17;43.67;;;2.60;99.90;;;;;;5050295;28;20857;-55
2022/01/16 00:19:31;;;;;;;96.30;43.25;;;2.60;99.90;;;;;;5027677;28;20044;-55
2022/01/16 00:21:58;;;;;;;89.00;37.37;;;2.60;99.90;;;;;;5030400;28;20045;-57
2022/01/16 00:24:23;;;;;;;;;;;2.50;99.90;;;;;;5029376;28;20308;-58
2022/01/16 00:26:49;;;;;;;83.22;35.10;;;2.50;99.90;;;;;;5028846;28;19924;-56
2022/01/16 00:29:14;;;;;;;91.70;39.30;;;2.50;99.90;;;;;;5032160;28;20613;-58
2022/01/16 00:31:41;;;;;;;78.83;37.33;;;2.40;99.90;;;;;;5049260;28;20063;-58
2022/01/16 00:34:07;;;;;;;;;;;2.40;99.90;;;;;;5050259;28;20406;-56
2022/01/16 00:36:33;;;;;;;78.95;35.90;;;2.40;99.90;;;;;;5049511;28;19979;-55
2022/01/16 00:38:59;;;;;;;85.82;36.40;;;2.40;99.90;;;;;;5049759;28;20063;-58
2022/01/16 00:41:26;;;;;;;81.33;36.20;;;2.40;99.90;;;;;;5049815;28;20045;-58
2022/01/16 00:43:53;;;;;;;76.80;36.00;;;2.40;99.90;;;;;;5049775;28;20041;-55
2022/01/16 00:46:19;;;;;;;79.57;36.08;;;2.40;99.90;;;;;;5049600;28;20041;-57
2022/01/16 00:48:45;;;;;;;83.70;35.30;;;2.40;99.90;;;;;;5049740;28;20036;-58
2022/01/16 00:51:11;;;;;;;86.20;37.33;;;2.40;99.90;;;;;;5049725;28;20031;-58
2022/01/16 00:53:39;;;;;;;83.50;37.42;;;2.30;99.90;;;;;;5048378;28;20037;-58
2022/01/16 00:56:05;;;;;;;78.35;35.03;;;2.30;99.90;;;;;;5049008;28;20041;-57
2022/01/16 00:58:31;;;;;;;84.53;35.80;;;2.30;99.90;;;;;;5049261;28;20111;-57
2022/01/16 01:00:57;;;;;;;75.70;34.33;;;2.30;99.90;;;;;;5049464;28;20041;-57
2022/01/16 01:03:23;;;;;;;81.97;38.20;;;2.30;99.90;;;;;;5047764;28;20037;-57
2022/01/16 01:05:49;;;;;;;79.23;34.00;;;2.30;99.90;;;;;;5049180;28;20063;-58
2022/01/16 01:08:14;;;;;;;79.80;36.08;;;2.20;99.90;;;;;;5049189;28;20283;-56
2022/01/16 01:10:42;;;;;;;80.00;36.97;;;2.30;99.90;;;;;;5048465;28;20048;-58
2022/01/16 01:13:11;;;;;;;82.15;36.13;;;2.20;99.90;;;;;;5049269;28;20086;-56
2022/01/16 01:15:43;;;;;;;82.57;34.80;;;2.20;99.90;;;;;;5048080;28;20110;-54
2022/01/16 01:18:09;;;;;;;82.50;37.28;;;2.20;99.90;;;;;;5049196;28;20120;-58
2022/01/16 01:20:36;;;;;;;87.53;38.70;;;2.20;99.90;;;;;;5037863;28;20045;-56
2022/01/16 01:23:02;;;;;;;84.32;38.55;;;2.20;99.90;;;;;;5049486;28;20037;-56
2022/01/16 01:25:28;;;;;;;87.10;40.92;;;2.20;99.90;;;;;;5052482;28;20120;-57
2022/01/16 01:27:53;;;;;;;93.13;40.30;;;2.20;99.90;;;;;;5052984;28;20120;-58
2022/01/16 01:30:23;;;;;;;88.23;40.10;;;2.20;99.90;;;;;;5053049;28;20037;-55
2022/01/16 01:32:49;;;;;;;94.45;41.03;;;2.20;99.90;;;;;;5051112;28;20056;-58
2022/01/16 01:35:18;;;;;;;89.97;38.95;;;2.10;99.90;;;;;;5052695;28;20076;-59
2022/01/16 01:37:44;;;;;;;92.28;39.08;;;2.20;99.90;;;;;;5052619;28;20409;-59
2022/01/16 01:40:13;;;;;;;;;;;2.20;99.90;;;;;;5035127;28;20501;-58
2022/01/16 01:51:09;;;;;;;93.85;40.08;;;2.20;99.90;;;;;;5052695;28;20048;-58
2022/01/16 01:53:37;;;;;;;94.03;41.90;;;2.20;99.90;;;;;;5051354;28;20052;-59
2022/01/16 01:56:04;;;;;;;86.65;40.30;;;2.20;99.90;;;;;;5052201;28;20032;-57
2022/01/16 01:58:30;;;;;;;94.90;43.25;;;2.20;99.90;;;;;;5052368;28;20041;-58
2022/01/16 02:00:55;;;;;;;100.63;42.10;;;2.10;99.90;;;;;;5052100;28;20379;-58
2022/01/16 02:03:29;;;;;;;86.87;39.23;;;2.10;99.90;;;;;;5051892;28;20275;-59
2022/01/16 02:05:55;;;;;;;92.57;41.15;;;2.10;99.90;;;;;;5052214;28;20147;-57
2022/01/16 02:08:21;;;;;;;91.93;40.93;;;2.10;99.90;;;;;;5051158;28;20493;-59
2022/01/16 02:10:46;;;;;;;92.03;40.83;;;2.10;99.90;;;;;;5052438;28;20112;-56
2022/01/16 02:13:22;;;;;;;95.03;41.13;;;2.10;99.90;;;;;;5052692;28;20047;-58
2022/01/16 02:31:44;;;;;;;105.75;43.08;;;2.00;99.90;;;;;;5052575;28;20523;-58
2022/01/16 02:36:59;;;;;;;96.63;41.83;;;2.00;99.90;;;;;;5052121;28;20080;-58
2022/01/16 02:39:26;;;;;;;102.55;41.08;;;2.00;99.90;;;;;;5045141;28;20041;-58
2022/01/16 02:41:53;;;;;;;104.50;43.45;;;2.00;99.90;;;;;;5051667;28;20081;-58
2022/01/16 02:44:31;;;;;;;107.30;41.42;;;2.00;99.90;;;;;;5050064;28;20090;-58
2022/01/16 02:46:58;;;;;;;98.15;41.92;;;2.00;99.90;;;;;;5040190;28;20049;-58
2022/01/16 02:49:32;;;;;;;99.05;41.20;;;2.00;99.90;;;;;;5051322;28;20037;-58
2022/01/16 02:52:05;;;;;;;103.95;44.22;;;2.00;99.90;;;;;;5051472;28;20114;-58
2022/01/16 02:54:36;;;;;;;103.50;40.88;;;2.00;99.90;;;;;;5051387;28;20033;-58
2022/01/16 02:57:03;;;;;;;97.47;41.70;;;2.00;99.90;;;;;;5051491;28;20052;-58
2022/01/16 02:59:29;;;;;;;128.20;48.88;;;2.00;99.90;;;;;;5050489;28;20041;-55
2022/01/16 03:01:54;;;;;;;114.95;47.45;;;2.10;99.90;;;;;;5050279;28;20037;-58
2022/01/16 03:04:20;;;;;;;105.07;43.10;;;2.00;99.90;;;;;;5051005;28;20517;-59
2022/01/16 03:06:46;;;;;;;124.90;45.85;;;2.00;99.90;;;;;;5049623;28;20087;-55
2022/01/16 03:09:13;;;;;;;122.20;48.10;;;2.00;99.90;;;;;;5050942;28;20114;-58
2022/01/16 03:11:45;;;;;;;124.65;50.92;;;2.00;99.90;;;;;;5049604;28;20037;-56
2022/01/16 03:14:14;;;;;;;142.80;52.35;;;2.00;99.90;;;;;;5051111;28;20033;-57
2022/01/16 03:16:43;;;;;;;135.77;47.35;;;2.00;99.90;;;;;;5049717;28;20049;-57
2022/01/16 03:21:54;;;;;;;148.95;50.38;;;2.10;99.90;;;;;;5045329;28;20293;-58
2022/01/16 03:24:28;;;;;;;153.07;55.95;;;2.00;99.90;;;;;;5048745;28;20202;-57
2022/01/16 03:27:01;;;;;;;147.25;50.45;;;2.10;99.90;;;;;;5049533;28;20506;-58
2022/01/16 03:29:28;;;;;;;157.75;50.83;;;2.00;99.90;;;;;;5050590;28;20094;-57
2022/01/16 03:31:54;;;;;;;161.00;52.38;;;2.10;99.90;;;;;;5051164;28;20033;-55
2022/01/16 03:34:20;;;;;;;151.20;53.45;;;2.10;99.90;;;;;;5051076;28;20128;-58
2022/01/16 03:36:46;;;;;;;176.57;55.43;;;2.10;99.90;;;;;;5050081;28;20128;-55
2022/01/16 03:39:12;;;;;;;164.50;54.45;;;2.10;99.90;;;;;;5050827;28;20098;-53
2022/01/16 03:41:38;;;;;;;159.13;54.33;;;2.10;99.90;;;;;;5050374;28;20444;-58
2022/01/16 03:44:05;;;;;;;154.40;53.37;;;2.10;99.90;;;;;;5050395;28;20116;-58
2022/01/16 03:46:36;;;;;;;148.70;50.95;;;2.10;99.90;;;;;;5049305;28;20275;-58
2022/01/16 03:49:26;;;;;;;142.35;51.85;;;2.20;99.90;;;;;;5050228;28;20055;-57
2022/01/16 03:51:53;;;;;;;155.48;52.45;;;2.20;99.90;;;;;;5050059;28;20041;-56
2022/01/16 03:54:21;;;;;;;145.35;53.08;;;2.20;99.90;;;;;;5050529;28;20053;-57
2022/01/16 03:56:47;;;;;;;140.02;49.47;;;2.20;99.90;;;;;;5049988;28;20047;-58
2022/01/16 03:59:13;;;;;;;159.95;54.67;;;2.20;99.90;;;;;;5050065;28;20036;-58
2022/01/16 04:01:40;;;;;;;150.98;49.88;;;2.20;99.90;;;;;;5050026;28;20033;-57
2022/01/16 04:04:06;;;;;;;137.65;50.67;;;2.20;99.90;;;;;;5049324;28;20088;-55
2022/01/16 04:06:32;;;;;;;147.13;51.17;;;2.20;99.90;;;;;;5049987;28;20060;-58
2022/01/16 04:08:59;;;;;;;141.65;49.45;;;2.30;99.90;;;;;;5049888;28;20112;-57
2022/01/16 04:11:28;;;;;;;133.80;47.97;;;2.20;99.90;;;;;;5049723;28;20087;-58
2022/01/16 04:14:03;;;;;;;134.40;49.92;;;2.30;99.90;;;;;;5050061;28;20079;-56
2022/01/16 04:16:29;;;;;;;131.40;48.92;;;2.20;99.90;;;;;;5049268;28;20395;-58
2022/01/16 04:18:55;;;;;;;144.27;50.75;;;2.30;99.90;;;;;;5050073;28;20106;-57
2022/01/16 04:21:23;;;;;;;163.33;52.50;;;2.30;99.90;;;;;;5049859;28;20522;-58
2022/01/16 04:23:50;;;;;;;150.40;52.55;;;2.30;99.90;;;;;;5049186;28;20041;-58
2022/01/16 04:26:17;;;;;;;157.80;54.20;;;2.30;99.90;;;;;;5048083;28;20041;-58
2022/01/16 04:28:43;;;;;;;154.07;55.67;;;2.30;99.90;;;;;;5049839;28;20041;-58
2022/01/16 04:31:09;;;;;;;155.48;52.78;;;2.30;99.90;;;;;;5048121;28;20044;-57
2022/01/16 04:33:35;;;;;;;171.73;53.40;;;2.30;99.90;;;;;;5049585;28;20059;-57
2022/01/16 04:36:02;;;;;;;149.65;51.92;;;2.40;99.90;;;;;;5049422;28;20029;-56
2022/01/16 04:38:28;;;;;;;139.48;51.83;;;2.40;99.90;;;;;;5049794;28;20107;-57
2022/01/16 04:43:47;;;;;;;157.25;55.92;;;2.40;99.90;;;;;;5037562;28;20124;-57
2022/01/16 04:46:13;;;;;;;167.68;55.42;;;2.40;99.90;;;;;;5048113;28;20045;-58
2022/01/16 04:48:39;;;;;;;160.07;55.83;;;2.40;99.90;;;;;;5049588;28;20029;-58
2022/01/16 04:51:04;;;;;;;148.30;53.93;;;2.40;99.90;;;;;;5050150;28;20059;-58
2022/01/16 04:53:30;;;;;;;149.03;51.50;;;2.40;99.90;;;;;;5049782;28;20036;-57
2022/01/16 04:55:56;;;;;;;148.03;55.00;;;2.40;99.90;;;;;;5049316;28;20094;-56
2022/01/16 04:58:22;;;;;;;146.00;55.28;;;2.40;99.90;;;;;;5053022;28;20576;-59
2022/01/16 05:00:48;;;;;;;137.57;53.08;;;2.40;99.90;;;;;;5053685;28;20060;-58
2022/01/16 05:03:14;;;;;;;152.77;54.37;;;2.40;99.90;;;;;;5052464;28;20486;-56
2022/01/16 05:05:39;;;;;;;148.20;55.60;;;2.40;99.90;;;;;;5053108;28;20094;-54
2022/01/16 05:08:05;;;;;;;152.50;54.13;;;2.50;99.90;;;;;;5053095;28;20040;-58
2022/01/16 05:10:31;;;;;;;153.93;55.47;;;2.50;99.90;;;;;;5052936;28;20509;-57
2022/01/16 05:13:15;;;;;;;;;;;2.40;99.90;;;;;;5053483;28;20120;-57
2022/01/16 05:18:24;;;;;;;143.88;51.40;;;2.50;99.90;;;;;;5053408;28;20045;-57
2022/01/16 05:20:50;;;;;;;157.73;57.87;;;2.50;99.90;;;;;;5052883;28;20124;-57
2022/01/16 05:23:16;;;;;;;150.07;54.67;;;2.50;99.90;;;;;;5052943;28;20573;-56
2022/01/16 05:25:41;;;;;;;156.33;58.17;;;2.50;99.90;;;;;;5052938;28;20123;-55
2022/01/16 05:28:07;;;;;;;152.47;55.00;;;2.50;99.90;;;;;;5053107;28;20033;-54
2022/01/16 05:30:32;;;;;;;138.53;52.23;;;2.50;99.90;;;;;;5052724;28;20052;-57
2022/01/16 05:32:58;;;;;;;148.60;51.13;;;2.50;99.90;;;;;;5052827;28;20119;-59
2022/01/16 05:35:23;;;;;;;148.43;55.03;;;2.50;99.90;;;;;;5050875;28;20098;-57
2022/01/16 05:37:49;;;;;;;145.60;53.00;;;2.50;99.90;;;;;;5053319;28;20051;-55
2022/01/16 05:40:14;;;;;;;150.50;61.53;;;2.50;99.90;;;;;;5052753;28;20052;-54
2022/01/16 05:42:40;;;;;;;137.03;52.83;;;2.60;99.90;;;;;;5053616;28;20044;-59
2022/01/16 05:45:06;;;;;;;155.60;55.57;;;2.60;99.90;;;;;;5053331;28;20556;-57
2022/01/16 05:47:32;;;;;;;144.48;53.95;;;2.60;99.90;;;;;;5058703;28;20048;-57
2022/01/16 05:49:57;;;;;;;149.13;54.90;;;2.60;99.90;;;;;;5058480;28;20041;-56
2022/01/16 05:52:23;;;;;;;142.67;53.50;;;2.70;99.90;;;;;;5058417;28;20474;-57
2022/01/16 05:54:48;;;;;;;151.60;53.23;;;2.70;99.90;;;;;;5058365;28;20106;-54
2022/01/16 05:57:14;;;;;;;152.47;56.00;;;2.70;99.90;;;;;;5053023;28;20041;-56
2022/01/16 05:59:39;;;;;;;155.53;58.33;;;2.70;99.90;;;;;;5052427;28;20329;-56
2022/01/16 06:02:05;;;;;;;144.97;54.10;;;2.70;99.90;;;;;;5052375;28;20098;-56
2022/01/16 06:04:31;;;;;;;146.57;53.77;;;2.70;99.90;;;;;;5052171;28;20044;-58
2022/01/16 06:06:56;;;;;;;144.77;55.27;;;2.70;99.90;;;;;;5033994;28;20052;-56
2022/01/16 06:09:22;;;;;;;164.95;55.58;;;2.80;99.90;;;;;;5041430;28;20095;-57
2022/01/16 06:11:48;;;;;;;158.43;55.80;;;2.80;99.90;;;;;;5052179;28;20037;-58
2022/01/16 06:14:13;;;;;;;146.90;53.43;;;2.80;99.90;;;;;;5052734;28;20625;-57
2022/01/16 06:16:39;;;;;;;141.50;52.87;;;2.80;99.90;;;;;;5050249;28;20414;-57
2022/01/16 06:19:05;;;;;;;143.07;53.93;;;2.80;99.90;;;;;;5052065;28;20063;-56
2022/01/16 06:21:30;;;;;;;142.97;53.30;;;2.80;99.90;;;;;;5051582;28;20437;-53
2022/01/16 06:23:57;;;;;;;139.47;55.33;;;2.90;99.90;;;;;;5051936;28;20037;-53
2022/01/16 06:26:22;;;;;;;;;;;2.90;99.90;;;;;;5051919;28;20391;-57
2022/01/16 06:28:48;;;;;;;145.48;52.10;;;2.90;99.90;;;;;;5051931;28;19970;-57
2022/01/16 06:31:13;;;;;;;139.47;51.37;;;2.90;99.90;;;;;;5051543;28;20059;-57
2022/01/16 06:33:39;;;;;;;141.20;50.63;;;2.90;99.90;;;;;;5052114;28;20033;-56
2022/01/16 06:36:05;;;;;;;143.67;55.13;;;2.90;99.90;;;;;;5050848;28;20063;-56
2022/01/16 06:38:31;;;;;;;144.77;54.33;;;2.90;99.90;;;;;;5050666;28;20029;-56
2022/01/16 06:40:57;;;;;;;143.55;52.92;;;2.90;99.90;;;;;;5066861;28;20040;-57
2022/01/16 06:43:22;;;;;;;143.97;53.77;;;2.90;99.90;;;;;;5048542;28;20086;-56
2022/01/16 06:45:48;;;;;;;144.13;55.63;;;2.90;99.90;;;;;;5050255;28;20037;-55
2022/01/16 06:48:13;;;;;;;145.03;53.43;;;2.90;99.90;;;;;;5050074;28;20118;-55
2022/01/16 06:50:39;;;;;;;137.53;51.67;;;2.90;99.90;;;;;;5049760;28;20037;-56
2022/01/16 06:53:04;;;;;;;136.00;54.57;;;2.90;99.90;;;;;;5051427;28;20033;-55
2022/01/16 06:55:30;;;;;;;147.07;52.00;;;2.90;99.90;;;;;;5049771;28;20040;-57
2022/01/16 06:57:56;;;;;;;140.90;50.13;;;2.90;99.90;;;;;;5051149;28;20438;-57
2022/01/16 07:00:21;;;;;;;137.23;51.80;;;3.00;99.90;;;;;;5051124;28;20037;-57
2022/01/16 07:02:47;;;;;;;143.17;54.93;;;3.00;99.90;;;;;;5050893;28;20110;-56
2022/01/16 07:05:12;;;;;;;150.03;57.30;;;3.00;99.90;;;;;;5050491;28;20045;-58
2022/01/16 07:07:38;;;;;;;132.00;49.17;;;3.00;99.90;;;;;;5051213;28;20052;-58
2022/01/16 07:10:04;;;;;;;141.63;53.07;;;3.00;99.90;;;;;;5051067;28;20029;-58
2022/01/16 07:12:30;;;;;;;141.18;51.45;;;3.00;99.90;;;;;;5050909;28;20037;-58
2022/01/16 07:14:55;;;;;;;134.60;50.00;;;3.00;99.90;;;;;;5050764;28;20410;-58
2022/01/16 07:17:21;;;;;;;139.10;52.23;;;3.00;99.90;;;;;;5049406;28;20469;-57
2022/01/16 07:19:46;;;;;;;137.80;51.43;;;3.10;99.90;;;;;;5050651;28;20045;-58
2022/01/16 07:22:12;;;;;;;146.90;51.50;;;3.10;99.90;;;;;;5049370;28;20040;-58
2022/01/16 07:24:37;;;;;;;143.27;51.27;;;3.10;99.90;;;;;;5050531;28;20041;-59
2022/01/16 07:27:03;;;;;;;149.93;51.37;;;3.20;99.90;;;;;;5050579;28;20024;-57
2022/01/16 07:29:29;;;;;;;147.23;53.38;;;3.20;99.90;;;;;;5050024;28;20033;-58
2022/01/16 07:31:56;;;;;;;141.05;54.90;;;3.20;99.90;;;;;;5050517;28;20040;-57
2022/01/16 07:34:21;;;;;;;156.38;55.35;;;3.20;99.90;;;;;;5050793;28;20114;-58
2022/01/16 07:36:47;;;;;;;134.93;51.35;;;3.20;99.90;;;;;;5039037;28;20041;-57
2022/01/16 07:39:13;;;;;;;141.63;52.88;;;3.20;99.90;;;;;;5047059;28;20044;-57
2022/01/16 07:41:39;;;;;;;148.87;50.57;;;3.30;99.90;;;;;;5050849;28;20068;-56
2022/01/16 07:44:04;;;;;;;141.33;55.33;;;3.30;99.90;;;;;;5050225;28;20711;-58
2022/01/16 07:46:30;;;;;;;134.80;52.45;;;3.30;99.90;;;;;;5050378;28;20033;-53
2022/01/16 07:48:56;;;;;;;130.95;50.75;;;3.30;99.90;;;;;;5050977;28;20033;-58
2022/01/16 07:51:22;;;;;;;136.83;51.50;;;3.30;99.90;;;;;;5036974;28;20033;-58
2022/01/16 07:53:48;;;;;;;136.80;51.47;;;3.30;99.90;;;;;;5030843;28;20533;-54
2022/01/16 07:56:13;;;;;;;153.17;52.67;;;3.40;99.90;;;;;;5030564;28;20045;-56
2022/01/16 07:58:41;;;;;;;146.27;53.73;;;3.40;99.90;;;;;;5029769;28;20456;-54
2022/01/16 08:01:07;;;;;;;132.48;49.63;;;3.40;99.90;;;;;;5030592;28;20083;-57
2022/01/16 08:03:33;;;;;;;130.90;51.23;;;3.40;99.90;;;;;;5044019;28;20452;-55
2022/01/16 08:05:58;;;;;;;130.67;51.17;;;3.50;99.90;;;;;;5050217;28;20052;-57
2022/01/16 08:08:24;;;;;;;132.23;52.97;;;3.50;99.90;;;;;;5050641;28;20076;-57
2022/01/16 08:10:49;;;;;;;136.67;51.90;;;3.60;99.90;;;;;;5049154;28;20116;-57
2022/01/16 08:13:15;;;;;;;122.87;49.70;;;3.50;99.90;;;;;;5050068;28;20041;-57
2022/01/16 08:15:43;;;;;;;129.10;48.27;;;3.60;99.90;;;;;;5049399;28;20102;-55
2022/01/16 08:18:09;;;;;;;133.77;51.00;;;3.60;99.90;;;;;;5049370;28;20398;-53
2022/01/16 08:20:35;;;;;;;132.95;53.45;;;3.70;99.90;;;;;;5050163;28;20076;-56
2022/01/16 08:23:00;;;;;;;129.87;53.00;;;3.70;99.90;;;;;;5049579;28;20490;-57
2022/01/16 08:25:26;;;;;;;134.10;49.63;;;3.70;99.90;;;;;;5049600;28;20472;-56
2022/01/16 08:27:52;;;;;;;129.73;53.08;;;3.70;99.90;;;;;;5049614;28;20029;-57
2022/01/16 08:30:17;;;;;;;123.63;50.93;;;3.80;99.90;;;;;;5049714;28;20564;-57
2022/01/16 08:32:44;;;;;;;121.03;52.20;;;3.80;99.90;;;;;;5048746;28;20029;-56
2022/01/16 08:35:10;;;;;;;124.53;49.58;;;3.80;99.90;;;;;;5049082;28;20086;-53
2022/01/16 08:37:36;;;;;;;134.20;51.70;;;3.80;99.90;;;;;;5049502;28;20041;-54
2022/01/16 08:40:02;;;;;;;123.23;52.90;;;3.90;99.90;;;;;;5047907;28;20051;-56
2022/01/16 08:42:28;;;;;;;130.93;53.42;;;3.90;99.90;;;;;;5049524;28;20048;-56
2022/01/16 08:44:55;;;;;;;118.40;49.67;;;3.90;99.90;;;;;;5049258;28;20315;-54
2022/01/16 08:47:20;;;;;;;;;;;4.00;99.90;;;;;;5047871;28;20045;-57
2022/01/16 08:49:46;;;;;;;110.10;46.13;;;4.00;99.90;;;;;;5047193;28;19939;-55
2022/01/16 08:52:11;;;;;;;113.63;49.97;;;4.00;99.90;;;;;;5050002;28;20490;-54
2022/01/16 08:54:37;;;;;;;116.10;50.80;;;4.00;99.90;;;;;;5049568;28;20161;-56
2022/01/16 08:57:03;;;;;;;111.30;49.05;;;4.10;99.90;;;;;;5048876;28;20332;-57
2022/01/16 08:59:29;;;;;;;115.22;49.83;;;4.10;99.90;;;;;;5050684;28;20456;-56
2022/01/16 09:01:55;;;;;;;117.13;49.53;;;4.10;99.90;;;;;;5049945;28;20041;-56
2022/01/16 09:04:21;;;;;;;120.30;47.47;;;4.20;99.90;;;;;;5049260;28;20037;-56
2022/01/16 09:06:46;;;;;;;116.43;48.30;;;4.20;99.90;;;;;;5049502;28;20037;-57
2022/01/16 09:09:12;;;;;;;110.57;50.90;;;4.20;99.90;;;;;;5048063;28;20041;-56
2022/01/16 09:11:38;;;;;;;102.40;47.13;;;4.30;99.90;;;;;;5048963;28;20048;-56
2022/01/16 09:14:03;;;;;;;106.03;46.07;;;4.30;99.90;;;;;;5049513;28;20033;-56
2022/01/16 09:16:30;;;;;;;102.97;47.30;;;4.30;99.90;;;;;;5048993;28;20708;-58
2022/01/16 09:18:56;;;;;;;103.47;47.28;;;4.30;99.90;;;;;;5055368;28;20045;-53
2022/01/16 09:21:22;;;;;;;95.72;47.90;;;4.40;99.90;;;;;;5055453;28;20037;-53
2022/01/16 09:23:49;;;;;;;101.00;46.97;;;4.40;99.90;;;;;;5049371;28;20052;-53
2022/01/16 09:26:15;;;;;;;95.63;46.03;;;4.40;99.90;;;;;;5047934;28;20072;-54
2022/01/16 09:28:42;;;;;;;98.53;47.22;;;4.40;99.90;;;;;;5049157;28;20033;-53
2022/01/16 09:31:08;;;;;;;;;;;4.50;99.90;;;;;;5030038;28;20045;-53
2022/01/16 09:33:34;;;;;;;91.68;44.70;;;4.50;99.90;;;;;;5048909;28;20339;-58
2022/01/16 09:36:00;;;;;;;96.88;46.33;;;4.50;99.90;;;;;;5048777;28;20045;-58
2022/01/16 09:38:26;;;;;;;96.30;44.28;;;4.60;99.90;;;;;;5049010;28;20048;-54
2022/01/16 09:40:52;;;;;;;100.27;46.07;;;4.60;99.90;;;;;;5049691;28;20036;-56
2022/01/16 09:43:18;;;;;;;86.07;42.83;;;4.60;99.90;;;;;;5048457;28;20040;-57
2022/01/16 09:45:44;;;;;;;96.40;46.85;;;4.60;99.90;;;;;;5051846;28;20556;-59
2022/01/16 09:48:09;;;;;;;88.33;44.43;;;4.60;99.90;;;;;;5052774;28;20072;-56
2022/01/16 09:50:35;;;;;;;91.50;45.90;;;4.70;99.90;;;;;;5052596;28;20402;-55
2022/01/16 09:53:02;;;;;;;88.75;42.35;;;4.70;99.90;;;;;;5052507;28;20791;-55
2022/01/16 09:55:28;;;;;;;84.18;41.95;;;4.70;99.90;;;;;;5049846;28;20094;-56
2022/01/16 09:57:56;;;;;;;82.63;41.47;;;4.70;99.90;;;;;;5052407;28;20111;-52
2022/01/16 10:00:24;;;;;;;94.35;46.60;;;4.70;99.90;;;;;;5052069;28;20517;-56
2022/01/16 10:02:51;;;;;;;82.63;42.05;;;4.80;99.90;;;;;;5052411;28;20049;-56
2022/01/16 10:05:35;;;;;;;87.50;42.13;;;4.80;99.90;;;;;;5052236;28;20399;-57
2022/01/16 10:08:09;;;;;;;84.20;42.50;;;4.80;99.90;;;;;;5051979;28;20048;-57
2022/01/16 10:10:37;;;;;;;79.68;41.03;;;4.80;99.90;;;;;;5051807;28;20029;-56
2022/01/16 10:13:37;;;;;;;83.43;43.35;;;4.80;99.90;;;;;;5051956;28;20048;-57
2022/01/16 10:16:03;;;;;;;81.55;41.53;;;4.90;99.90;;;;;;5049792;28;20049;-58
2022/01/16 10:18:39;;;;;;;79.50;42.95;;;4.90;99.90;;;;;;5052057;28;20501;-57
2022/01/16 10:21:07;;;;;;;79.68;41.95;;;4.90;99.90;;;;;;5052056;28;20048;-53
2022/01/16 10:23:40;;;;;;;76.65;39.67;;;4.90;99.90;;;;;;5051956;28;20099;-57
2022/01/16 10:26:17;;;;;;;72.82;38.10;;;5.00;99.90;;;;;;5040164;28;20409;-57
2022/01/16 10:28:43;;;;;;;;;;;5.00;99.90;;;;;;5052206;28;20037;-58
2022/01/16 10:31:18;;;;;;;80.20;38.50;;;5.00;99.90;;;;;;5057259;28;19916;-58
2022/01/16 10:33:44;;;;;;;72.15;37.75;;;5.00;99.90;;;;;;5041933;28;20047;-57
2022/01/16 10:36:09;;;;;;;72.40;36.57;;;5.10;99.90;;;;;;5051982;28;20132;-56
2022/01/16 10:38:35;;;;;;;75.57;37.53;;;5.10;99.90;;;;;;5051847;28;20078;-57
2022/01/16 10:41:01;;;;;;;73.73;35.67;;;5.10;99.90;;;;;;5051473;28;20029;-56
2022/01/16 10:43:45;;;;;;;68.35;35.25;;;5.20;99.90;;;;;;5051512;28;20029;-53
2022/01/16 10:46:12;;;;;;;58.83;33.75;;;5.20;99.90;;;;;;5049672;28;20059;-55
2022/01/16 10:48:39;;;;;;;71.95;36.10;;;5.20;99.90;;;;;;5051237;28;20049;-56
2022/01/16 10:51:18;;;;;;;72.95;33.33;;;5.20;99.90;;;;;;5049826;28;20056;-55
2022/01/16 10:53:44;;;;;;;58.88;33.33;;;5.20;99.90;;;;;;5051197;28;20033;-55
2022/01/16 10:56:09;;;;;;;57.70;33.80;;;5.30;99.90;;;;;;5051003;28;20398;-54
2022/01/16 10:58:35;;;;;;;61.87;33.00;;;5.30;99.90;;;;;;5051058;28;20040;-54
2022/01/16 11:01:03;;;;;;;61.70;34.63;;;5.30;99.90;;;;;;5051235;28;20064;-53
2022/01/16 11:03:50;;;;;;;56.25;32.05;;;5.30;99.90;;;;;;5050255;28;20409;-56
2022/01/16 11:06:18;;;;;;;63.78;32.35;;;5.40;99.90;;;;;;5049931;28;20069;-58
2022/01/16 11:08:56;;;;;;;60.83;33.28;;;5.40;99.90;;;;;;5051015;28;20029;-54
2022/01/16 11:11:23;;;;;;;58.60;31.73;;;5.40;99.90;;;;;;5042177;28;20095;-55
2022/01/16 11:13:50;;;;;;;56.08;31.27;;;5.40;99.90;;;;;;5051036;28;20040;-57
2022/01/16 11:16:16;;;;;;;61.17;33.35;;;5.50;99.90;;;;;;5047143;28;20029;-54
2022/01/16 11:18:48;;;;;;;51.28;31.15;;;5.50;99.90;;;;;;5049450;28;20075;-56
2022/01/16 11:21:19;;;;;;;53.80;30.65;;;5.50;99.90;;;;;;5046451;28;20048;-55
2022/01/16 11:24:00;;;;;;;51.95;31.15;;;5.50;99.90;;;;;;5050522;28;20039;-56
2022/01/16 11:26:27;;;;;;;51.63;30.30;;;5.50;99.90;;;;;;5050897;28;20045;-59
2022/01/16 11:28:54;;;;;;;57.40;30.55;;;5.50;99.90;;;;;;5050581;28;20060;-55
2022/01/16 11:31:21;;;;;;;53.53;30.25;;;5.50;99.90;;;;;;5047550;28;20124;-55
2022/01/16 11:33:47;;;;;;;49.95;29.08;;;5.50;99.90;;;;;;5049346;28;20039;-56
2022/01/16 11:36:18;;;;;;;49.70;27.17;;;5.50;99.90;;;;;;5050300;28;20045;-56
2022/01/16 11:38:49;;;;;;;52.00;28.35;;;5.50;99.90;;;;;;5050169;28;20045;-56
2022/01/16 11:41:19;;;;;;;51.33;26.70;;;5.60;99.90;;;;;;5049864;28;20037;-54
2022/01/16 11:43:47;;;;;;;47.88;28.60;;;5.60;99.90;;;;;;5050538;28;20079;-56
2022/01/16 11:46:19;;;;;;;46.05;26.05;;;5.60;99.90;;;;;;5050389;28;20379;-57
2022/01/16 11:49:01;;;;;;;47.20;26.70;;;5.60;99.90;;;;;;5050211;28;20123;-57
2022/01/16 11:51:33;;;;;;;46.35;25.13;;;5.60;99.90;;;;;;5050316;28;20075;-55
2022/01/16 11:53:58;;;;;;;42.55;25.75;;;5.60;99.90;;;;;;5050550;28;20052;-57
2022/01/16 11:56:55;;;;;;;42.73;25.30;;;5.70;99.90;;;;;;5049923;28;20188;-53
2022/01/16 11:59:23;;;;;;;45.55;23.92;;;5.70;99.90;;;;;;5036644;28;20049;-58
2022/01/16 12:01:53;;;;;;;41.78;24.50;;;5.70;99.90;;;;;;5029371;28;20053;-57
2022/01/16 12:04:28;;;;;;;43.22;24.58;;;5.70;99.90;;;;;;5037488;28;20039;-56
2022/01/16 12:07:05;;;;;;;35.63;22.05;;;5.70;99.90;;;;;;5039562;28;20045;-57
2022/01/16 12:09:47;;;;;;;40.05;20.23;;;5.80;99.90;;;;;;5043712;28;20033;-57
2022/01/16 12:12:12;;;;;;;36.95;22.02;;;5.80;99.90;;;;;;5043065;28;20097;-56
2022/01/16 12:15:09;;;;;;;36.53;21.13;;;5.80;99.90;;;;;;5040668;28;20044;-58
2022/01/16 12:20:13;;;;;;;35.40;20.88;;;5.90;99.90;;;;;;5044680;28;20040;-56
2022/01/16 12:22:47;;;;;;;34.33;20.25;;;5.90;99.90;;;;;;5049868;28;20048;-56
2022/01/16 12:25:51;;;;;;;32.08;18.92;;;5.90;99.90;;;;;;5048494;28;20521;-57
2022/01/16 12:28:25;;;;;;;33.20;20.63;;;5.90;99.90;;;;;;5034847;28;20532;-57
2022/01/16 12:31:03;;;;;;;30.42;19.92;;;5.90;99.90;;;;;;5044296;28;20033;-57
2022/01/16 12:33:34;;;;;;;33.47;20.08;;;5.90;99.90;;;;;;5037182;28;20056;-57
2022/01/16 12:36:15;;;;;;;32.05;19.80;;;6.00;99.90;;;;;;5044265;28;20033;-57
2022/01/16 12:38:44;;;;;;;30.92;19.88;;;6.00;99.90;;;;;;5040155;28;20041;-57
2022/01/16 12:41:12;;;;;;;31.40;18.60;;;6.00;99.90;;;;;;5044078;28;20036;-56
2022/01/16 12:43:48;;;;;;;29.88;18.80;;;6.00;99.90;;;;;;5042220;28;20045;-57
2022/01/16 12:46:17;;;;;;;27.15;17.80;;;6.00;99.90;;;;;;5042851;28;20417;-57
2022/01/16 12:48:45;;;;;;;33.70;18.17;;;6.00;99.90;;;;;;5043729;28;20550;-56
2022/01/16 12:51:13;;;;;;;31.35;18.38;;;6.00;99.90;;;;;;5043726;28;20029;-56
2022/01/16 12:53:42;;;;;;;28.80;17.60;;;6.00;99.90;;;;;;5042807;28;20124;-55
2022/01/16 12:56:41;;;;;;;27.38;17.73;;;6.10;99.90;;;;;;5042673;28;20040;-57
2022/01/16 12:59:19;;;;;;;33.90;19.33;;;6.10;99.90;;;;;;5037672;28;20037;-54
2022/01/16 13:01:51;;;;;;;26.67;17.13;;;6.10;99.90;;;;;;5040797;28;20045;-56
2022/01/16 13:04:33;;;;;;;29.48;18.15;;;6.10;99.90;;;;;;5043772;28;20052;-55
2022/01/16 13:07:02;;;;;;;31.55;19.20;;;6.10;99.90;;;;;;5043849;28;20083;-56
2022/01/16 13:09:29;;;;;;;24.17;16.50;;;6.20;99.90;;;;;;5043651;28;20041;-57
2022/01/16 13:11:59;;;;;;;27.45;17.40;;;6.20;99.90;;;;;;5058268;28;20171;-56
2022/01/16 13:14:29;;;;;;;29.70;18.88;;;6.20;99.90;;;;;;5044622;28;20037;-54
2022/01/16 13:16:59;;;;;;;30.42;18.45;;;6.20;99.90;;;;;;5043860;28;20227;-55
2022/01/16 13:19:30;;;;;;;32.10;19.02;;;6.20;99.90;;;;;;5047698;28;20486;-57